createdAt,value
2023-04-28T00:01:25.610Z,9.38
2023-04-28T00:03:57.044Z,9.37
2023-04-28T00:06:31.083Z,9.35
2023-04-28T00:09:00.950Z,9.32
2023-04-28T00:11:30.798Z,9.29
2023-04-28T00:14:00.573Z,9.28
2023-04-28T00:16:30.249Z,9.25
2023-04-28T00:18:59.912Z,9.22
2023-04-28T00:21:32.246Z,9.19
2023-04-28T00:24:01.987Z,9.17
2023-04-28T00:26:31.668Z,9.16
2023-04-28T00:29:01.441Z,9.14
2023-04-28T00:31:31.230Z,9.12
2023-04-28T00:34:01.500Z,9.10
2023-04-28T00:36:33.829Z,9.07
2023-04-28T00:39:03.560Z,9.06
2023-04-28T00:41:33.324Z,9.02
2023-04-28T00:44:02.949Z,8.99
2023-04-28T00:46:33.967Z,8.97
2023-04-28T00:49:03.720Z,8.91
2023-04-28T00:51:36.667Z,8.88
2023-04-28T00:54:07.144Z,8.85
2023-04-28T00:56:37.068Z,8.84
2023-04-28T00:59:06.814Z,8.84
2023-04-28T01:01:36.794Z,8.84
2023-04-28T01:04:06.921Z,8.83
2023-04-28T01:06:41.532Z,8.84
2023-04-28T01:09:12.163Z,8.84
2023-04-28T01:11:41.875Z,8.81
2023-04-28T01:14:14.079Z,8.79
2023-04-28T01:16:45.027Z,8.79
2023-04-28T01:19:20.143Z,8.78
2023-04-28T01:21:52.602Z,8.74
2023-04-28T01:24:26.575Z,8.67
2023-04-28T01:27:00.875Z,8.62
2023-04-28T01:29:31.313Z,8.60
2023-04-28T01:32:01.317Z,8.60
2023-04-28T01:34:31.134Z,8.61
2023-04-28T01:37:00.786Z,8.62
2023-04-28T01:39:33.125Z,8.61
2023-04-28T01:42:02.863Z,8.61
2023-04-28T01:44:32.500Z,8.59
2023-04-28T01:47:02.286Z,8.58
2023-04-28T01:49:32.350Z,8.59
2023-04-28T01:52:02.393Z,8.58
2023-04-28T01:54:35.542Z,8.58
2023-04-28T01:57:06.182Z,8.57
2023-04-28T01:59:36.368Z,8.54
2023-04-28T02:02:08.751Z,8.51
2023-04-28T02:04:38.640Z,8.48
2023-04-28T02:07:08.706Z,8.48
2023-04-28T02:09:41.025Z,8.48
2023-04-28T02:12:11.122Z,8.48
2023-04-28T02:14:40.768Z,8.48
2023-04-28T02:17:10.472Z,8.51
2023-04-28T02:19:40.493Z,8.51
2023-04-28T02:22:10.229Z,8.51
2023-04-28T02:24:42.476Z,8.52
2023-04-28T02:27:12.688Z,8.52
2023-04-28T02:29:42.355Z,8.53
2023-04-28T02:32:12.064Z,8.52
2023-04-28T02:34:41.802Z,8.52
2023-04-28T02:37:11.485Z,8.49
2023-04-28T02:39:47.230Z,8.44
2023-04-28T02:42:18.505Z,8.40
2023-04-28T02:44:48.432Z,8.40
2023-04-28T02:47:18.214Z,8.40
2023-04-28T02:49:48.384Z,8.40
2023-04-28T02:52:18.698Z,8.42
2023-04-28T02:54:54.661Z,8.45
2023-04-28T02:57:24.377Z,8.45
2023-04-28T02:59:54.366Z,8.45
2023-04-28T03:02:24.572Z,8.47
2023-04-28T03:04:54.327Z,8.48
2023-04-28T03:07:24.061Z,8.48
2023-04-28T03:09:56.454Z,8.49
2023-04-28T03:12:26.144Z,8.49
2023-04-28T03:14:56.073Z,8.50
2023-04-28T03:17:26.162Z,8.50
2023-04-28T03:19:56.125Z,8.50
2023-04-28T03:22:26.034Z,8.51
2023-04-28T03:24:58.412Z,8.52
2023-04-28T03:27:30.257Z,8.52
2023-04-28T03:30:00.682Z,8.52
2023-04-28T03:32:30.565Z,8.54
2023-04-28T03:35:00.439Z,8.56
2023-04-28T03:37:30.200Z,8.58
2023-04-28T03:40:03.369Z,8.60
2023-04-28T03:42:41.196Z,8.64
2023-04-28T03:45:13.781Z,8.67
2023-04-28T03:47:43.594Z,8.72
2023-04-28T03:50:13.850Z,8.75
2023-04-28T03:52:43.507Z,8.80
2023-04-28T03:55:16.413Z,8.82
2023-04-28T03:57:46.231Z,8.84
2023-04-28T04:00:16.935Z,8.87
2023-04-28T04:02:48.748Z,8.90
2023-04-28T04:05:19.569Z,8.91
2023-04-28T04:07:49.422Z,8.91
2023-04-28T04:10:21.919Z,8.91
2023-04-28T04:12:52.622Z,8.94
2023-04-28T04:15:23.258Z,8.93
2023-04-28T04:17:53.042Z,8.94
2023-04-28T04:20:24.776Z,8.94
2023-04-28T04:22:54.605Z,8.97
2023-04-28T04:25:27.183Z,8.96
2023-04-28T04:27:58.059Z,8.97
2023-04-28T04:30:28.024Z,8.98
2023-04-28T04:32:57.837Z,9.01
2023-04-28T04:35:27.811Z,9.03
2023-04-28T04:37:57.745Z,9.04
2023-04-28T04:40:30.287Z,9.07
2023-04-28T04:43:00.134Z,9.08
2023-04-28T04:45:31.269Z,9.10
2023-04-28T04:48:01.148Z,9.12
2023-04-28T04:50:30.888Z,9.12
2023-04-28T04:53:01.141Z,9.13
2023-04-28T04:55:33.728Z,9.15
2023-04-28T04:58:04.064Z,9.17
2023-04-28T05:00:34.019Z,9.18
2023-04-28T05:03:04.376Z,9.18
2023-04-28T05:05:34.825Z,9.20
2023-04-28T05:08:24.920Z,9.19
2023-04-28T05:10:57.848Z,9.20
2023-04-28T05:13:27.895Z,9.23
2023-04-28T05:16:03.065Z,9.25
2023-04-28T05:18:48.560Z,9.25
2023-04-28T05:21:18.867Z,9.26
2023-04-28T05:23:48.692Z,9.26
2023-04-28T05:26:21.070Z,9.27
2023-04-28T05:28:51.511Z,9.28
2023-04-28T05:31:21.322Z,9.29
2023-04-28T05:33:51.888Z,9.31
2023-04-28T05:36:21.790Z,9.32
2023-04-28T05:38:51.974Z,9.34
2023-04-28T05:41:24.963Z,9.36
2023-04-28T05:43:54.759Z,9.38
2023-04-28T05:46:30.693Z,9.41
2023-04-28T05:49:02.688Z,9.43
2023-04-28T05:51:41.608Z,9.47
2023-04-28T05:54:11.536Z,9.47
2023-04-28T05:56:49.318Z,9.45
2023-04-28T05:59:19.639Z,9.47
2023-04-28T06:01:50.869Z,9.48
2023-04-28T06:04:21.083Z,9.50
2023-04-28T06:06:52.242Z,9.52
2023-04-28T06:09:22.187Z,9.56
2023-04-28T06:11:54.608Z,9.59
2023-04-28T06:14:25.975Z,9.64
2023-04-28T06:16:55.718Z,9.68
2023-04-28T06:19:25.538Z,9.68
2023-04-28T06:21:55.277Z,9.73
2023-04-28T06:24:24.949Z,9.78
2023-04-28T06:27:00.779Z,9.83
2023-04-28T06:29:31.035Z,9.87
2023-04-28T06:32:00.793Z,9.91
2023-04-28T06:34:31.229Z,9.97
2023-04-28T06:37:01.688Z,10.02
2023-04-28T06:39:31.673Z,10.05
2023-04-28T06:42:04.522Z,10.14
2023-04-28T06:44:38.118Z,10.24
2023-04-28T06:47:08.028Z,10.38
2023-04-28T06:49:44.033Z,10.54
2023-04-28T06:52:14.444Z,10.69
2023-04-28T06:54:44.325Z,10.77
2023-04-28T06:57:16.668Z,10.81
2023-04-28T06:59:46.703Z,10.85
2023-04-28T07:02:16.550Z,10.91
2023-04-28T07:04:46.333Z,10.92
2023-04-28T07:07:16.991Z,10.95
2023-04-28T07:09:46.914Z,11.00
2023-04-28T07:12:19.216Z,11.11
2023-04-28T07:14:48.957Z,11.21
2023-04-28T07:17:18.674Z,11.29
2023-04-28T07:19:50.095Z,11.35
2023-04-28T07:22:20.210Z,11.39
2023-04-28T07:24:49.924Z,11.46
2023-04-28T07:27:22.209Z,11.48
2023-04-28T07:29:51.986Z,11.54
2023-04-28T07:32:21.752Z,11.67
2023-04-28T07:34:51.489Z,11.71
2023-04-28T07:37:21.644Z,11.74
2023-04-28T07:39:51.292Z,11.85
2023-04-28T07:42:23.551Z,11.89
2023-04-28T07:44:53.266Z,11.87
2023-04-28T07:47:23.264Z,11.87
2023-04-28T07:49:52.931Z,11.93
2023-04-28T07:52:22.627Z,11.98
2023-04-28T07:54:52.295Z,12.02
2023-04-28T07:57:24.797Z,12.06
2023-04-28T07:59:54.582Z,12.06
2023-04-28T08:02:24.338Z,12.07
2023-04-28T08:04:54.376Z,12.07
2023-04-28T08:07:24.843Z,12.10
2023-04-28T08:09:55.344Z,12.16
2023-04-28T08:12:27.713Z,12.22
2023-04-28T08:14:57.525Z,12.28
2023-04-28T08:17:27.276Z,12.32
2023-04-28T08:19:57.067Z,12.39
2023-04-28T08:22:26.776Z,12.38
2023-04-28T08:24:56.491Z,12.42
2023-04-28T08:27:28.989Z,12.48
2023-04-28T08:29:58.774Z,12.49
2023-04-28T08:32:28.788Z,12.52
2023-04-28T08:34:58.686Z,12.56
2023-04-28T08:37:29.476Z,12.51
2023-04-28T08:40:03.394Z,12.48
2023-04-28T08:42:37.659Z,12.58
2023-04-28T08:45:08.823Z,12.64
2023-04-28T08:47:40.741Z,12.67
2023-04-28T08:50:12.621Z,12.68
2023-04-28T08:52:43.149Z,12.74
2023-04-28T08:55:14.590Z,12.79
2023-04-28T08:57:49.059Z,12.83
2023-04-28T09:00:19.249Z,12.87
2023-04-28T09:02:49.051Z,13.01
2023-04-28T09:05:19.092Z,13.08
2023-04-28T09:07:52.188Z,13.23
2023-04-28T09:10:23.561Z,13.37
2023-04-28T09:12:58.705Z,13.42
2023-04-28T09:15:32.672Z,13.53
2023-04-28T09:18:04.105Z,13.60
2023-04-28T09:20:35.106Z,13.62
2023-04-28T09:23:18.486Z,13.74
2023-04-28T09:26:04.824Z,13.79
2023-04-28T09:28:38.031Z,13.80
2023-04-28T09:31:07.940Z,13.81
2023-04-28T09:33:37.650Z,13.79
2023-04-28T09:36:08.177Z,13.81
2023-04-28T09:38:46.645Z,13.80
2023-04-28T09:41:16.581Z,13.66
2023-04-28T09:43:49.096Z,13.69
2023-04-28T09:46:31.908Z,13.67
2023-04-28T09:49:04.624Z,13.54
2023-04-28T09:51:34.747Z,13.54
2023-04-28T09:54:05.736Z,13.56
2023-04-28T09:56:40.919Z,13.58
2023-04-28T09:59:13.485Z,13.56
2023-04-28T10:01:44.041Z,13.55
2023-04-28T10:04:14.793Z,13.63
2023-04-28T10:06:44.848Z,13.68
2023-04-28T10:09:15.008Z,13.77
2023-04-28T10:11:45.007Z,13.79
2023-04-28T10:14:17.365Z,13.79
2023-04-28T10:16:47.653Z,13.90
2023-04-28T10:19:17.321Z,13.87
2023-04-28T10:21:54.782Z,13.86
2023-04-28T10:24:29.833Z,13.83
2023-04-28T10:27:07.762Z,13.85
2023-04-28T10:29:40.446Z,13.89
2023-04-28T10:32:21.157Z,13.90
2023-04-28T10:34:51.477Z,13.91
2023-04-28T10:37:21.257Z,13.75
2023-04-28T10:40:21.005Z,13.79
2023-04-28T10:42:57.873Z,13.74
2023-04-28T10:46:12.505Z,13.66
2023-04-28T10:49:08.676Z,13.69
2023-04-28T10:51:38.515Z,13.58
2023-04-28T10:54:19.657Z,13.60
2023-04-28T10:57:23.017Z,13.62
2023-04-28T10:59:53.359Z,13.63
2023-04-28T11:02:46.323Z,13.69
2023-04-28T11:05:20.608Z,13.72
2023-04-28T11:08:35.459Z,13.77
2023-04-28T11:11:21.251Z,13.87
2023-04-28T11:13:51.917Z,13.87
2023-04-28T11:16:23.721Z,13.85
2023-04-28T11:19:07.299Z,13.86
2023-04-28T11:21:39.676Z,13.99
2023-04-28T11:24:13.195Z,14.16
2023-04-28T11:26:43.949Z,13.96
2023-04-28T11:29:15.135Z,13.96
2023-04-28T11:31:52.266Z,14.00
2023-04-28T11:34:23.401Z,13.98
2023-04-28T11:36:56.139Z,13.97
2023-04-28T11:39:31.493Z,14.07
2023-04-28T11:42:02.478Z,14.10
2023-04-28T11:44:33.527Z,14.12
2023-04-28T11:47:05.219Z,14.16
2023-04-28T11:49:44.612Z,14.32
2023-04-28T11:52:17.000Z,14.49
2023-04-28T11:54:46.816Z,14.62
2023-04-28T11:57:23.456Z,14.69
2023-04-28T11:59:53.832Z,14.76
2023-04-28T12:02:31.019Z,14.86
2023-04-28T12:05:09.240Z,14.93
2023-04-28T12:07:46.811Z,14.93
2023-04-28T12:10:18.967Z,14.93
2023-04-28T12:12:52.360Z,15.05
2023-04-28T12:15:24.938Z,15.06
2023-04-28T12:17:54.809Z,15.04
2023-04-28T12:20:38.092Z,14.98
2023-04-28T12:23:11.327Z,14.95
2023-04-28T12:25:48.216Z,14.95
2023-04-28T12:28:18.059Z,14.96
2023-04-28T12:30:47.865Z,14.97
2023-04-28T12:33:27.484Z,15.00
2023-04-28T12:35:57.849Z,15.06
2023-04-28T12:38:30.329Z,15.15
2023-04-28T12:41:00.563Z,15.18
2023-04-28T12:43:30.409Z,15.29
2023-04-28T12:46:00.730Z,15.43
2023-04-28T12:48:31.983Z,15.52
2023-04-28T12:51:01.705Z,15.65
2023-04-28T12:53:34.139Z,15.73
2023-04-28T12:56:03.860Z,15.83
2023-04-28T12:58:33.746Z,15.98
2023-04-28T13:01:03.422Z,16.06
2023-04-28T13:03:33.192Z,16.14
2023-04-28T13:06:02.964Z,16.22
2023-04-28T13:08:35.418Z,16.26
2023-04-28T13:11:16.171Z,16.40
2023-04-28T13:13:52.980Z,16.45
2023-04-28T13:16:25.207Z,16.52
2023-04-28T13:18:54.970Z,16.61
2023-04-28T13:21:24.729Z,16.71
2023-04-28T13:23:57.458Z,16.77
2023-04-28T13:26:27.314Z,16.80
2023-04-28T13:28:57.161Z,16.86
2023-04-28T13:31:26.932Z,16.98
2023-04-28T13:33:56.685Z,16.97
2023-04-28T13:36:26.990Z,17.05
2023-04-28T13:39:01.584Z,17.09
2023-04-28T13:41:32.138Z,17.19
2023-04-28T13:44:01.878Z,17.24
2023-04-28T13:46:31.675Z,17.29
2023-04-28T13:49:01.853Z,17.34
2023-04-28T13:51:33.081Z,17.41
2023-04-28T13:54:08.374Z,17.48
2023-04-28T13:56:38.838Z,17.60
2023-04-28T13:59:08.502Z,17.65
2023-04-28T14:01:38.264Z,17.65
2023-04-28T14:04:08.150Z,17.69
2023-04-28T14:06:38.349Z,17.65
2023-04-28T14:09:10.715Z,17.64
2023-04-28T14:11:40.569Z,17.66
2023-04-28T14:14:10.344Z,17.67
2023-04-28T14:16:40.095Z,17.69
2023-04-28T14:19:10.144Z,17.69
2023-04-28T14:21:40.054Z,17.71
2023-04-28T14:24:13.109Z,17.71
2023-04-28T14:26:44.078Z,17.90
2023-04-28T14:29:13.921Z,17.95
2023-04-28T14:31:43.636Z,18.02
2023-04-28T14:34:13.669Z,18.06
2023-04-28T14:36:43.346Z,18.06
2023-04-28T14:39:16.138Z,18.12
2023-04-28T14:41:46.076Z,18.21
2023-04-28T14:44:16.147Z,18.23
2023-04-28T14:46:46.063Z,18.24
2023-04-28T14:49:15.781Z,18.17
2023-04-28T14:51:46.186Z,18.16
2023-04-28T14:54:18.552Z,18.11
2023-04-28T14:56:48.414Z,18.09
2023-04-28T14:59:19.008Z,18.06
2023-04-28T15:01:50.669Z,18.04
2023-04-28T15:04:20.843Z,18.04
2023-04-28T15:06:50.791Z,18.03
2023-04-28T15:09:23.564Z,18.04
2023-04-28T15:11:54.180Z,17.94
2023-04-28T15:14:23.864Z,17.91
2023-04-28T15:16:53.568Z,17.78
2023-04-28T15:19:23.597Z,17.74
2023-04-28T15:21:53.745Z,17.71
2023-04-28T15:24:26.246Z,17.71
2023-04-28T15:26:56.676Z,17.66
2023-04-28T15:29:26.389Z,17.64
2023-04-28T15:31:56.864Z,17.56
2023-04-28T15:34:26.793Z,17.53
2023-04-28T15:36:56.783Z,17.47
2023-04-28T15:39:29.182Z,17.38
2023-04-28T15:41:59.680Z,17.30
2023-04-28T15:44:30.729Z,17.22
2023-04-28T15:47:00.735Z,17.10
2023-04-28T15:49:30.442Z,16.99
2023-04-28T15:52:00.296Z,16.90
2023-04-28T15:54:34.048Z,16.79
2023-04-28T15:57:03.755Z,16.68
2023-04-28T15:59:33.718Z,16.60
2023-04-28T16:02:03.657Z,16.49
2023-04-28T16:04:33.594Z,16.28
2023-04-28T16:07:04.511Z,16.09
2023-04-28T16:09:36.951Z,16.03
2023-04-28T16:12:07.643Z,15.92
2023-04-28T16:14:37.682Z,15.88
2023-04-28T16:17:07.856Z,15.79
2023-04-28T16:19:38.234Z,15.79
2023-04-28T16:22:08.020Z,15.83
2023-04-28T16:24:42.739Z,15.88
2023-04-28T16:27:12.877Z,16.11
2023-04-28T16:29:42.731Z,16.09
2023-04-28T16:32:12.542Z,16.05
2023-04-28T16:34:42.341Z,16.05
2023-04-28T16:37:12.053Z,16.02
2023-04-28T16:39:44.317Z,15.96
2023-04-28T16:42:14.015Z,15.97
2023-04-28T16:44:44.168Z,15.96
2023-04-28T16:47:14.367Z,15.94
2023-04-28T16:49:44.138Z,15.90
2023-04-28T16:52:13.838Z,15.87
2023-04-28T16:54:46.231Z,15.82
2023-04-28T16:57:15.983Z,15.81
2023-04-28T16:59:45.870Z,15.77
2023-04-28T17:02:15.551Z,15.69
2023-04-28T17:04:45.424Z,15.66
2023-04-28T17:07:15.121Z,15.67
2023-04-28T17:09:47.422Z,15.67
2023-04-28T17:12:17.886Z,15.64
2023-04-28T17:14:47.547Z,15.62
2023-04-28T17:17:17.943Z,15.61
2023-04-28T17:19:47.691Z,15.57
2023-04-28T17:22:17.719Z,15.55
2023-04-28T17:24:49.966Z,15.50
2023-04-28T17:27:19.725Z,15.43
2023-04-28T17:29:49.591Z,15.42
2023-04-28T17:32:19.414Z,15.40
2023-04-28T17:34:49.074Z,15.39
2023-04-28T17:37:18.810Z,15.39
2023-04-28T17:39:52.410Z,15.35
2023-04-28T17:42:22.386Z,15.27
2023-04-28T17:44:52.197Z,15.21
2023-04-28T17:47:22.324Z,15.16
2023-04-28T17:49:52.388Z,15.13
2023-04-28T17:52:22.630Z,15.06
2023-04-28T17:54:54.987Z,15.03
2023-04-28T17:57:24.681Z,15.01
2023-04-28T17:59:54.466Z,15.01
2023-04-28T18:02:24.170Z,14.94
2023-04-28T18:04:54.047Z,14.92
2023-04-28T18:07:23.888Z,14.90
2023-04-28T18:09:57.425Z,14.88
2023-04-28T18:12:27.543Z,14.78
2023-04-28T18:14:57.961Z,14.73
2023-04-28T18:17:27.781Z,14.68
2023-04-28T18:19:57.914Z,14.61
2023-04-28T18:22:28.102Z,14.55
2023-04-28T18:25:00.599Z,14.51
2023-04-28T18:27:30.377Z,14.42
2023-04-28T18:30:00.042Z,14.38
2023-04-28T18:32:30.217Z,14.31
2023-04-28T18:35:00.766Z,14.30
2023-04-28T18:37:30.536Z,14.22
2023-04-28T18:40:02.903Z,14.21
2023-04-28T18:42:33.173Z,14.19
2023-04-28T18:45:04.539Z,14.16
2023-04-28T18:47:35.332Z,14.16
2023-04-28T18:50:05.555Z,14.12
2023-04-28T18:52:35.187Z,14.09
2023-04-28T18:55:08.754Z,14.11
2023-04-28T18:57:38.566Z,14.10
2023-04-28T19:00:09.823Z,14.03
2023-04-28T19:02:39.634Z,14.06
2023-04-28T19:05:10.548Z,14.04
2023-04-28T19:07:40.278Z,14.00
2023-04-28T19:10:13.739Z,13.99
2023-04-28T19:12:43.559Z,13.96
2023-04-28T19:15:13.866Z,13.91
2023-04-28T19:17:43.660Z,13.92
2023-04-28T19:20:13.955Z,13.92
2023-04-28T19:22:44.417Z,13.93
2023-04-28T19:25:16.780Z,13.93
2023-04-28T19:27:47.517Z,13.91
2023-04-28T19:30:17.976Z,13.90
2023-04-28T19:32:47.767Z,13.90
2023-04-28T19:35:17.489Z,13.89
2023-04-28T19:37:48.524Z,13.88
2023-04-28T19:40:20.886Z,13.86
2023-04-28T19:42:51.308Z,13.86
2023-04-28T19:45:21.026Z,13.83
2023-04-28T19:47:50.661Z,13.78
2023-04-28T19:50:21.291Z,13.78
2023-04-28T19:52:51.063Z,13.78
2023-04-28T19:55:24.668Z,13.78
2023-04-28T19:57:57.303Z,13.75
2023-04-28T20:00:28.334Z,13.72
2023-04-28T20:02:59.371Z,13.70
2023-04-28T20:05:29.148Z,13.70
2023-04-28T20:07:58.848Z,13.68
2023-04-28T20:10:31.308Z,13.65
2023-04-28T20:13:01.483Z,13.66
2023-04-28T20:15:31.160Z,13.66
2023-04-28T20:18:00.895Z,13.65
2023-04-28T20:20:30.652Z,13.65
2023-04-28T20:23:00.439Z,13.64
2023-04-28T20:25:32.836Z,13.61
2023-04-28T20:28:02.534Z,13.63
2023-04-28T20:30:32.190Z,13.60
2023-04-28T20:33:01.937Z,13.62
2023-04-28T20:35:31.662Z,13.60
2023-04-28T20:38:01.438Z,13.60
2023-04-28T20:40:34.839Z,13.59
2023-04-28T20:43:04.591Z,13.50
2023-04-28T20:45:34.644Z,13.46
2023-04-28T20:48:04.450Z,13.43
2023-04-28T20:50:36.415Z,13.37
2023-04-28T20:53:06.107Z,13.32
2023-04-28T20:55:38.536Z,13.26
2023-04-28T20:58:08.294Z,13.22
2023-04-28T21:00:41.199Z,13.20
2023-04-28T21:03:15.746Z,13.12
2023-04-28T21:05:46.673Z,13.07
2023-04-28T21:08:16.541Z,13.03
2023-04-28T21:10:48.820Z,13.02
2023-04-28T21:13:18.522Z,13.01
2023-04-28T21:15:48.326Z,12.99
2023-04-28T21:18:17.993Z,12.99
2023-04-28T21:20:48.036Z,13.00
2023-04-28T21:23:17.668Z,13.02
2023-04-28T21:25:49.926Z,13.00
2023-04-28T21:28:20.764Z,13.01
2023-04-28T21:30:50.623Z,13.00
2023-04-28T21:33:22.328Z,13.00
2023-04-28T21:35:52.158Z,13.01
2023-04-28T21:38:21.851Z,13.00
2023-04-28T21:40:54.449Z,13.01
2023-04-28T21:43:24.232Z,13.01
2023-04-28T21:45:54.724Z,13.01
2023-04-28T21:48:24.635Z,13.00
2023-04-28T21:50:54.312Z,13.01
2023-04-28T21:53:24.089Z,13.01
2023-04-28T21:55:56.594Z,13.03
2023-04-28T21:58:26.367Z,13.03
2023-04-28T22:00:56.090Z,13.02
2023-04-28T22:03:26.115Z,13.01
2023-04-28T22:05:56.006Z,12.99
2023-04-28T22:08:25.688Z,12.96
2023-04-28T22:10:57.957Z,12.96
2023-04-28T22:13:27.939Z,12.91
2023-04-28T22:15:59.267Z,12.86
2023-04-28T22:18:29.133Z,12.85
2023-04-28T22:20:58.823Z,12.78
2023-04-28T22:23:28.711Z,12.77
2023-04-28T22:26:02.934Z,12.77
2023-04-28T22:28:32.711Z,12.76
2023-04-28T22:31:02.393Z,12.74
2023-04-28T22:33:32.527Z,12.71
2023-04-28T22:36:02.369Z,12.69
2023-04-28T22:38:32.090Z,12.66
2023-04-28T22:41:05.617Z,12.63
2023-04-28T22:43:35.286Z,12.55
2023-04-28T22:46:05.218Z,12.46
2023-04-28T22:48:34.903Z,12.43
2023-04-28T22:51:04.588Z,12.44
2023-04-28T22:53:34.262Z,12.47
2023-04-28T22:56:06.750Z,12.46
2023-04-28T22:58:36.493Z,12.43
2023-04-28T23:01:06.678Z,12.38
2023-04-28T23:03:38.443Z,12.28
2023-04-28T23:06:08.488Z,12.22
2023-04-28T23:08:38.200Z,12.15
2023-04-28T23:11:10.959Z,12.10
2023-04-28T23:13:40.754Z,12.07
2023-04-28T23:16:11.090Z,12.07
2023-04-28T23:18:40.837Z,12.06
2023-04-28T23:21:11.406Z,12.07
2023-04-28T23:23:41.113Z,11.98
2023-04-28T23:26:13.444Z,12.00
2023-04-28T23:28:43.102Z,11.96
2023-04-28T23:31:13.384Z,11.91
2023-04-28T23:33:43.147Z,11.85
2023-04-28T23:36:12.775Z,11.83
2023-04-28T23:38:42.534Z,11.78
2023-04-28T23:41:15.001Z,11.70
2023-04-28T23:43:44.660Z,11.67
2023-04-28T23:46:14.462Z,11.65
2023-04-28T23:48:44.212Z,11.64
2023-04-28T23:51:13.949Z,11.64
2023-04-28T23:53:44.007Z,11.63
2023-04-28T23:56:16.654Z,11.62
2023-04-28T23:58:46.396Z,11.63
